Observations for QUIMPER PLUGUFF, France (LFRQ)

LFRQ 252200Z AUTO 02002KT 9999 BKN007 BKN130 11/10 Q1023 BECMG 31010KT SCT024   
LFRQ 252130Z AUTO 36003KT CAVOK 11/11 Q1023 NOSIG   
LFRQ 252100Z AUTO 35003KT CAVOK 12/10 Q1023 NOSIG   
LFRQ 252030Z AUTO 36003KT CAVOK 12/11 Q1023 NOSIG   
LFRQ 252000Z AUTO 00000KT CAVOK 12/11 Q1023 BECMG 31010KT   
LFRQ 251930Z AUTO 34005KT CAVOK 13/11 Q1023 NOSIG   
LFRQ 251900Z AUTO 34006KT CAVOK 13/12 Q1023 NOSIG   
LFRQ 251830Z AUTO 34007KT CAVOK 14/12 Q1023 NOSIG   
LFRQ 251800Z AUTO 34008KT CAVOK 15/12 Q1022 NOSIG   
LFRQ 251730Z AUTO 33009KT 9999 FEW014 16/12 Q1022 NOSIG 
LFRQ 251700Z AUTO 33011KT CAVOK 17/12 Q1022 NOSIG   
LFRQ 251630Z AUTO 34012KT CAVOK 17/12 Q1022 NOSIG   
LFRQ 251600Z AUTO 34012KT CAVOK 18/11 Q1022 NOSIG   
LFRQ 251530Z AUTO 33011KT 300V360 CAVOK 18/11 Q1021 NOSIG   
LFRQ 251500Z AUTO 33011KT CAVOK 18/12 Q1021 NOSIG   
LFRQ 251430Z AUTO 33010KT 290V350 CAVOK 19/11 Q1021 NOSIG   
LFRQ 251400Z AUTO 33009KT 290V360 CAVOK 19/12 Q1021 NOSIG   
LFRQ 251330Z AUTO 33009KT 290V350 CAVOK 19/12 Q1021 NOSIG   
LFRQ 251300Z AUTO 32008KT 280V360 CAVOK 18/12 Q1021 NOSIG   
LFRQ 251230Z AUTO 31010KT 290V350 9999 FEW024 18/12 Q1021 TEMPO OVC014  
LFRQ 251200Z AUTO 33009KT 9999 FEW024 18/12 Q1021 BECMG OVC014  
LFRQ 251130Z AUTO 34008KT 280V020 9999 BKN022 17/13 Q1021 NOSIG 
LFRQ 251100Z AUTO 34008KT 9999 SCT022 17/12 Q1021 NOSIG 
LFRQ 251030Z AUTO 35006KT 310V040 9999 BKN017 BKN023 17/13 Q1021 NOSIG  
LFRQ 251000Z AUTO 35007KT 320V020 9999 BKN017 16/12 Q1021 NOSIG 
LFRQ 250930Z AUTO 35008KT 310V030 9999 OVC014 15/12 Q1021 BECMG FEW008 BKN020   
LFRQ 250900Z AUTO 34009KT 9999 OVC015 15/13 Q1020 NOSIG 
LFRQ 250830Z AUTO 35010KT 9999 OVC012 14/13 Q1020 BECMG FEW008 BKN020   
LFRQ 250800Z AUTO 35008KT 9999 BKN008 OVC012 14/13 Q1020 BECMG FEW008 BKN020
LFRQ 250730Z AUTO 35009KT 300V020 9999 OVC007 14/13 Q1020 BECMG FEW008 BKN020   
LFRQ 250700Z AUTO 33004KT 9999 OVC005 13/13 Q1020 BECMG FEW008 BKN020   
LFRQ 250630Z AUTO 33008KT 6000 OVC003 13/13 Q1019 BECMG FEW008 BKN020   
LFRQ 250600Z AUTO 34008KT 300V360 7000 VV/// 13/13 Q1019 BECMG FEW008 BKN020
LFRQ 250530Z AUTO 32010KT 2400 BR VV/// 13/13 Q1019 BECMG 6000 NSW FEW008 BKN020
LFRQ 250500Z AUTO 33007KT 9999 BKN007 14/13 Q1019   
LFRQ 250430Z AUTO 31008KT 9999 FEW005 13/13 Q1018   
LFRQ 250400Z AUTO 34003KT 9000 FEW006 BKN020 13/13 Q1018
LFRQ 250330Z AUTO 34005KT 300V360 9999 BKN006 OVC020 14/13 Q1018
LFRQ 250300Z AUTO 34007KT 7000 BKN005 OVC150 14/13 Q1018
LFRQ 250230Z AUTO 34004KT 8000 BKN006 OVC020 14/13 Q1018
LFRQ 250200Z AUTO 35005KT 9000 SCT019 BKN052 BKN150 14/13 Q1018 
LFRQ 250130Z AUTO 33006KT 9000 NSC 14/13 Q1018  
LFRQ 250100Z AUTO 34005KT 9999 FEW042 BKN150 14/14 Q1018
LFRQ 250030Z AUTO 35004KT 9999 FEW009 SCT020 BKN042 14/14 Q1018 
LFRQ 250000Z AUTO 32004KT 9999 FEW008 SCT023 BKN044 14/14 Q1018 
LFRQ 242330Z AUTO 34004KT 9999 BKN020 OVC170 15/14 Q1018
LFRQ 242300Z AUTO 01004KT 340V040 9999 FEW007 BKN018 BKN028 15/14 Q1018 NOSIG   
LFRQ 242230Z AUTO 36006KT 9999 FEW018 OVC024 15/15 Q1018 NOSIG  
LFRQ 242200Z AUTO 35006KT 9999 OVC018/// ///TCU 15/15 Q1018 BECMG BKN020
LFRQ 242130Z AUTO 34007KT 9999 FEW006/// OVC016/// ///TCU 15/15 Q1018 BECMG BKN020